Startpagina
METAR-TAF:

METAR-TAF

Vliegvelden :

P11-b, Nederland

Productieplatform

breedte: 52-21-36N, lengte: 3-20-30E, hoogte: 24 m

Actueel weer

Dit bericht is 31 minuten geleden gemaakt, om 01:25 UTC
Wind 9 kt uit het oosten
Temperatuur 16°C
Vochtigheid 94%
Druk 1021 hPa
Zicht: 5000 m
nevel

METAR: EHPG 260125Z AUTO 08009KT 5000 BR NSC 16/15 Q1021

Tijdstip: 03:56 (01:56 UTC)


TAF: ontbreekt

Waarnemingen en weersverwachtingen van meer dan 4000 vliegvelden (METAR en TAF).

De beschikbare stations zijn de gele en rode punten op de kaart.

Ga met uw muis naar het station om de naam te zien.

Klik dan om waarnemingen en weersverwachtingen te zien.

kaart wijzigen: klik op de groene knoppen met een zwart kruis om in te zoomen, op de groene knop met een streepje om uit te zoomen of op de groene pijlen voor aangrenzende kaarten.


METAR-TAF: